Time;durP1;ratioP1;P1;durP2;ratioP2;P2;SDS_P1;SDS_P2;PMS_P1;PMS_P2;Temp;Humidity;BMP_temperature;BMP_pressure;BME280_temperature;BME280_humidity;BME280_pressure;Samples;Min_cycle;Max_cycle;Signal;HPM_P1;HPM_P2
2023/04/16 00:00:33;;;;;;;48.10;28.50;;;;;;;7.36;75.66;98199.20;436418;1253;111024;-41
2023/04/16 00:11:00;;;;;;;52.10;31.50;;;;;;;7.21;75.88;98195.60;436257;1250;110768;-41
2023/04/16 00:21:08;;;;;;;45.60;26.40;;;;;;;7.22;76.00;98202.73;436246;1253;99221;-41
2023/04/16 00:31:15;;;;;;;41.00;24.70;;;;;;;7.26;76.32;98202.54;436104;1253;108668;-42
2023/04/16 00:41:23;;;;;;;39.60;25.00;;;;;;;7.12;76.22;98202.56;436336;1251;99352;-41
2023/04/16 00:51:31;;;;;;;56.70;29.50;;;;;;;6.95;76.43;98203.09;436281;1252;111218;-41
2023/04/16 01:01:39;;;;;;;38.70;25.00;;;;;;;6.83;76.58;98210.54;436194;1253;107313;-41
2023/04/16 01:11:47;;;;;;;39.10;23.70;;;;;;;6.82;76.69;98216.54;436259;1250;99247;-41
2023/04/16 01:21:54;;;;;;;35.90;22.40;;;;;;;6.77;76.77;98232.52;436755;1248;109527;-42
2023/04/16 01:32:01;;;;;;;35.80;23.80;;;;;;;6.85;77.16;98242.08;435301;1250;99236;-41
2023/04/16 01:42:08;;;;;;;34.50;22.50;;;;;;;7.01;77.58;98245.32;435548;1250;110941;-41
2023/04/16 01:52:15;;;;;;;45.70;28.30;;;;;;;7.06;77.75;98250.65;435309;1253;108676;-42
2023/04/16 02:12:30;;;;;;;29.00;20.30;;;;;;;7.15;77.83;98249.83;435412;1253;108293;-41
2023/04/16 02:22:37;;;;;;;32.20;20.90;;;;;;;7.10;77.75;98245.61;435248;1256;99221;-40
2023/04/16 02:32:45;;;;;;;37.90;27.00;;;;;;;7.16;78.13;98253.01;435622;1251;110011;-40
2023/04/16 02:42:54;;;;;;;36.00;25.30;;;;;;;6.85;77.97;98269.33;435383;1253;107052;-41
2023/04/16 02:53:02;;;;;;;35.00;24.70;;;;;;;6.75;78.27;98279.46;435469;1253;99215;-41
2023/04/16 03:03:09;;;;;;;34.70;23.50;;;;;;;6.96;78.58;98285.29;435514;1250;107144;-42
2023/04/16 03:13:16;;;;;;;30.30;21.70;;;;;;;7.15;78.77;98285.41;435208;1249;99218;-41
2023/04/16 03:23:23;;;;;;;31.30;19.80;;;;;;;7.35;78.90;98296.48;435431;1253;111646;-40
2023/04/16 03:33:30;;;;;;;36.80;23.40;;;;;;;7.48;78.95;98309.46;435327;1253;109187;-41
2023/04/16 03:43:37;;;;;;;42.60;24.50;;;;;;;7.43;79.12;98315.79;435023;1253;469477;-41
2023/04/16 03:53:45;;;;;;;44.30;27.00;;;;;;;7.39;79.16;98319.52;435256;1253;107147;-41
2023/04/16 04:03:52;;;;;;;42.90;22.90;;;;;;;7.36;79.15;98331.52;435444;1253;99226;-40
2023/04/16 04:13:59;;;;;;;35.50;21.00;;;;;;;7.47;79.17;98341.52;435337;1250;111776;-41
2023/04/16 04:24:05;;;;;;;44.40;24.10;;;;;;;7.56;79.46;98350.22;435212;1250;107234;-40
2023/04/16 04:34:12;;;;;;;28.00;17.00;;;;;;;7.60;79.34;98362.14;435389;1249;99250;-41
2023/04/16 04:44:19;;;;;;;32.50;18.20;;;;;;;7.56;79.44;98374.35;435457;1253;107168;-43
2023/04/16 04:54:25;;;;;;;36.30;21.50;;;;;;;7.56;79.73;98390.59;435475;1250;99282;-40
2023/04/16 05:04:32;;;;;;;40.00;21.30;;;;;;;7.63;79.98;98391.79;435399;1253;110102;-42
2023/04/16 05:14:39;;;;;;;40.10;21.40;;;;;;;7.62;79.93;98403.37;435442;1249;106662;-42
2023/04/16 05:24:46;;;;;;;43.10;21.10;;;;;;;7.70;79.95;98415.44;435469;1253;99225;-40
2023/04/16 05:34:53;;;;;;;41.30;21.90;;;;;;;7.77;79.90;98421.85;435221;1250;107890;-40
2023/04/16 05:45:02;;;;;;;35.70;20.50;;;;;;;7.81;80.11;98435.84;435237;1251;99247;-41
2023/04/16 05:55:07;;;;;;;43.60;22.50;;;;;;;7.89;80.26;98446.98;435368;1253;112412;-40
2023/04/16 06:05:14;;;;;;;43.90;23.60;;;;;;;7.81;80.40;98458.88;435437;1250;108162;-39
2023/04/16 06:15:20;;;;;;;45.40;23.00;;;;;;;7.86;80.38;98470.83;435288;1253;99366;-41
2023/04/16 06:25:27;;;;;;;40.10;21.30;;;;;;;7.96;80.45;98489.89;435276;1253;108256;-41
2023/04/16 06:35:34;;;;;;;36.60;20.20;;;;;;;8.03;80.37;98499.66;435228;1253;99839;-42
2023/04/16 06:45:42;;;;;;;41.90;25.00;;;;;;;8.21;80.47;98497.83;435284;1253;111831;-41
2023/04/16 06:55:49;;;;;;;38.40;22.30;;;;;;;8.22;80.59;98507.39;435411;1253;107055;-43
2023/04/16 07:05:56;;;;;;;38.70;23.10;;;;;;;8.21;80.50;98518.79;435409;1250;97994;-41
2023/04/16 07:16:04;;;;;;;36.70;21.00;;;;;;;8.28;80.56;98531.98;435231;1250;107677;-41
2023/04/16 07:26:12;;;;;;;34.90;19.40;;;;;;;8.53;80.48;98540.08;435296;1253;99109;-41
2023/04/16 07:36:20;;;;;;;38.00;21.50;;;;;;;8.65;80.49;98556.98;435463;1253;111115;-40
2023/04/16 07:46:27;;;;;;;38.60;23.00;;;;;;;8.75;80.46;98563.70;435285;1253;108569;-42
2023/04/16 07:56:51;;;;;;;39.00;22.60;;;;;;;8.91;80.40;98561.52;435560;1250;99263;-41
2023/04/16 08:06:59;;;;;;;29.20;19.70;;;;;;;9.15;80.35;98555.35;435316;1253;108256;-41
2023/04/16 08:17:06;;;;;;;46.50;28.20;;;;;;;9.44;80.19;98568.22;435269;1250;99248;-41
2023/04/16 08:27:15;;;;;;;31.60;20.80;;;;;;;9.84;80.14;98567.45;435416;1253;111082;-41
2023/04/16 08:37:26;;;;;;;25.50;18.20;;;;;;;10.27;79.82;98568.05;435258;1253;108303;-41
2023/04/16 08:47:34;;;;;;;30.60;19.90;;;;;;;10.74;79.64;98580.94;435372;1250;99269;-41
2023/04/16 08:57:47;;;;;;;30.30;21.40;;;;;;;10.80;78.55;98599.55;435443;1251;108560;-42
2023/04/16 09:18:00;;;;;;;29.80;21.10;;;;;;;11.52;78.35;98626.30;435414;1253;112357;-42
2023/04/16 09:28:09;;;;;;;32.30;22.60;;;;;;;12.79;77.84;98625.61;435341;1253;107661;-42
2023/04/16 09:38:17;;;;;;;57.20;40.70;;;;;;;13.10;76.22;98631.94;435409;1250;99248;-40
2023/04/16 09:48:28;;;;;;;29.60;21.00;;;;;;;13.22;76.04;98636.41;435579;1253;107834;-41
2023/04/16 10:08:43;;;;;;;37.50;21.00;;;;;;;13.75;73.39;98638.90;435492;1253;110356;-41
2023/04/16 10:28:58;;;;;;;34.60;23.20;;;;;;;13.93;71.50;98645.10;435401;1250;99276;-40
2023/04/16 10:39:09;;;;;;;36.50;27.00;;;;;;;14.26;71.41;98645.46;435553;1253;110696;-41
2023/04/16 10:59:25;;;;;;;33.90;24.60;;;;;;;15.25;70.56;98634.39;435315;1253;97912;-40
2023/04/16 11:09:52;;;;;;;38.10;25.90;;;;;;;15.28;70.11;98641.64;435409;1253;107785;-41
2023/04/16 11:20:00;;;;;;;33.80;22.40;;;;;;;15.43;69.30;98647.36;435520;1250;99278;-41
2023/04/16 11:40:14;;;;;;;31.80;21.00;;;;;;;15.69;66.71;98647.14;435319;1253;107634;-41
2023/04/16 11:50:24;;;;;;;16.30;12.20;;;;;;;15.19;66.49;98643.57;435347;1249;99249;-40
2023/04/16 12:00:36;;;;;;;18.00;14.20;;;;;;;16.11;65.89;98645.96;435452;1253;108292;-41
2023/04/16 12:10:52;;;;;;;24.00;16.70;;;;;;;16.60;64.19;98643.70;435405;1250;99262;-42
2023/04/16 12:21:04;;;;;;;21.40;15.60;;;;;;;16.25;61.76;98645.17;435519;1250;111904;-40
2023/04/16 12:31:11;;;;;;;21.80;14.10;;;;;;;15.68;61.18;98646.79;435389;1250;108441;-41
2023/04/16 12:41:18;;;;;;;21.00;15.30;;;;;;;15.77;61.51;98646.48;435388;1250;99281;-41
2023/04/16 12:51:25;;;;;;;16.40;12.10;;;;;;;15.60;61.02;98646.75;435373;1250;107960;-40
2023/04/16 13:01:34;;;;;;;19.70;14.90;;;;;;;15.34;60.82;98645.08;435324;1254;99197;-42
2023/04/16 13:11:42;;;;;;;17.10;12.80;;;;;;;15.19;60.96;98648.42;435628;1250;112435;-42
2023/04/16 13:21:49;;;;;;;15.90;13.00;;;;;;;15.43;61.30;98647.36;435349;1253;108462;-42
2023/04/16 13:31:57;;;;;;;17.20;13.00;;;;;;;15.90;60.77;98641.82;435509;1251;99263;-41
2023/04/16 13:42:05;;;;;;;18.50;12.60;;;;;;;15.89;59.88;98631.36;435468;1253;107984;-42
2023/04/16 13:52:12;;;;;;;14.70;10.00;;;;;;;15.68;59.84;98630.48;435318;1250;99012;-41
2023/04/16 14:02:20;;;;;;;14.80;9.30;;;;;;;15.64;59.00;98630.66;435463;1251;111019;-40
2023/04/16 14:12:27;;;;;;;13.60;9.60;;;;;;;15.59;58.82;98638.90;435289;1249;106072;-41
2023/04/16 14:22:41;;;;;;;14.80;9.40;;;;;;;15.71;59.13;98634.91;435272;1252;97985;-41
2023/04/16 14:32:51;;;;;;;13.10;9.50;;;;;;;15.86;58.07;98638.89;435438;1256;108474;-41
2023/04/16 14:42:58;;;;;;;11.00;8.70;;;;;;;15.43;57.27;98634.62;435454;1250;99224;-40
2023/04/16 14:53:05;;;;;;;13.50;6.30;;;;;;;15.08;57.58;98635.47;435318;1251;111209;-41
2023/04/16 15:03:12;;;;;;;10.60;6.00;;;;;;;14.92;57.79;98642.63;435253;1256;107416;-41
2023/04/16 15:13:20;;;;;;;8.20;6.00;;;;;;;14.96;57.28;98642.60;435270;1263;98059;-41
2023/04/16 15:23:27;;;;;;;8.50;6.50;;;;;;;15.11;57.10;98637.50;435221;1264;107529;-41
2023/04/16 15:33:34;;;;;;;6.50;5.60;;;;;;;15.05;56.05;98645.79;435207;1256;99880;-41
2023/04/16 15:43:42;;;;;;;5.60;4.80;;;;;;;15.02;55.71;98651.36;435105;1255;419428;-41
2023/04/16 16:03:55;;;;;;;6.90;4.30;;;;;;;14.90;54.90;98661.61;435177;1263;99246;-40
2023/04/16 16:14:03;;;;;;;8.10;5.60;;;;;;;14.76;54.69;98665.95;435344;1255;107081;-41
2023/04/16 16:24:10;;;;;;;5.20;4.20;;;;;;;14.55;55.15;98673.19;435196;1251;99253;-41
2023/04/16 16:34:17;;;;;;;9.60;4.70;;;;;;;14.27;54.88;98682.48;435332;1251;112075;-42
2023/04/16 16:44:28;;;;;;;9.80;4.70;;;;;;;13.98;55.65;98682.10;435374;1255;108205;-42
2023/04/16 17:04:41;;;;;;;8.50;6.00;;;;;;;13.53;57.24;98704.11;435813;1254;106920;-42
2023/04/16 17:14:49;;;;;;;10.10;7.40;;;;;;;13.26;58.01;98715.77;435190;1251;99234;-42
2023/04/16 17:24:55;;;;;;;;;;;;;;;12.97;58.59;98720.84;435358;1253;111881;-42
2023/04/16 17:35:03;;;;;;;11.60;8.80;;;;;;;12.67;59.35;98730.23;435343;1263;108449;-40
2023/04/16 17:45:10;;;;;;;;;;;;;;;12.40;59.99;98737.99;435324;1251;98687;-42
2023/04/16 17:55:17;;;;;;;15.70;9.70;;;;;;;12.07;60.46;98750.33;435365;1263;107470;-42
2023/04/16 18:05:23;;;;;;;18.00;9.90;;;;;;;11.80;61.04;98760.73;435262;1253;98917;-42
2023/04/16 18:15:29;;;;;;;15.30;8.90;;;;;;;11.66;61.79;98777.20;435269;1253;111165;-41
2023/04/16 18:25:37;;;;;;;14.30;11.90;;;;;;;11.58;62.43;98787.30;435300;1253;108465;-41
2023/04/16 18:35:46;;;;;;;16.90;12.40;;;;;;;11.39;62.91;98795.71;435457;1253;97996;-42
2023/04/16 18:45:53;;;;;;;19.00;12.70;;;;;;;11.10;63.43;98806.98;435421;1253;107625;-41
2023/04/16 18:56:00;;;;;;;16.40;12.30;;;;;;;10.82;63.94;98816.66;435345;1254;98836;-42
2023/04/16 19:16:14;;;;;;;17.40;11.90;;;;;;;10.57;64.57;98822.39;435166;1254;108104;-41
2023/04/16 19:26:22;;;;;;;20.70;15.00;;;;;;;10.45;64.92;98824.84;435316;1250;99250;-41
2023/04/16 19:36:28;;;;;;;23.70;15.30;;;;;;;10.27;65.34;98827.50;435352;1253;108111;-41
2023/04/16 19:46:35;;;;;;;28.80;17.40;;;;;;;10.08;65.67;98832.13;435239;1251;99221;-43
2023/04/16 19:56:42;;;;;;;26.90;17.30;;;;;;;9.94;65.89;98832.30;435306;1263;109580;-41
2023/04/16 20:06:48;;;;;;;18.70;13.90;;;;;;;9.89;66.26;98839.70;435352;1253;106943;-42
2023/04/16 20:16:56;;;;;;;32.10;20.80;;;;;;;9.76;66.74;98844.88;435502;1251;97992;-41
2023/04/16 20:27:03;;;;;;;33.80;20.90;;;;;;;9.54;66.95;98842.94;435312;1254;108308;-41
2023/04/16 20:37:09;;;;;;;35.70;21.70;;;;;;;9.12;67.39;98844.64;435301;1250;99224;-42
2023/04/16 20:47:17;;;;;;;41.70;22.20;;;;;;;8.80;67.67;98844.61;435197;1254;111978;-40
2023/04/16 20:57:24;;;;;;;42.20;19.80;;;;;;;8.70;68.16;98838.96;435287;1251;107647;-41
2023/04/16 21:07:32;;;;;;;36.40;24.00;;;;;;;8.45;68.29;98846.54;435219;1254;99260;-41
2023/04/16 21:17:39;;;;;;;44.20;29.60;;;;;;;8.19;69.00;98843.59;435329;1259;108361;-41
2023/04/16 21:27:46;;;;;;;52.60;32.20;;;;;;;8.00;69.22;98841.64;435503;1251;99204;-41
2023/04/16 21:37:53;;;;;;;51.60;28.50;;;;;;;7.89;69.66;98845.94;435316;1253;111889;-40
2023/04/16 21:48:00;;;;;;;47.20;26.50;;;;;;;7.90;69.93;98841.14;435307;1250;107342;-42
2023/04/16 21:58:08;;;;;;;50.50;29.60;;;;;;;7.74;70.11;98841.35;435362;1250;98001;-41
2023/04/16 22:08:15;;;;;;;46.00;28.90;;;;;;;7.43;70.46;98848.44;435398;1254;107320;-40
2023/04/16 22:28:39;;;;;;;38.70;25.60;;;;;;;7.03;70.92;98837.27;435461;1250;111066;-43
2023/04/16 22:38:46;;;;;;;44.60;26.10;;;;;;;7.04;71.29;98841.80;435287;1250;108379;-41
2023/04/16 22:48:53;;;;;;;47.10;29.00;;;;;;;6.84;71.66;98841.86;435333;1254;99285;-40
2023/04/16 22:59:00;;;;;;;49.00;29.70;;;;;;;6.72;71.85;98839.91;435113;1249;108418;-41
2023/04/16 23:09:08;;;;;;;40.60;27.70;;;;;;;6.58;72.01;98843.70;435272;1253;99231;-40
2023/04/16 23:19:15;;;;;;;39.70;26.80;;;;;;;6.37;72.06;98845.55;435399;1254;111016;-40
2023/04/16 23:29:21;;;;;;;46.80;28.80;;;;;;;6.38;72.55;98843.15;435201;1251;108029;-41
2023/04/16 23:39:28;;;;;;;54.50;33.40;;;;;;;6.38;72.67;98844.67;435265;1253;99253;-42
2023/04/16 23:49:36;;;;;;;54.10;33.90;;;;;;;6.22;72.80;98840.98;435300;1254;109318;-41
2023/04/16 23:59:43;;;;;;;54.70;33.20;;;;;;;5.91;72.92;98834.93;435484;1250;98104;-40
